createdAt,value
2018-09-17T00:00:25.324Z,64
2018-09-17T00:01:27.424Z,64
2018-09-17T00:02:29.525Z,64
2018-09-17T00:03:31.617Z,64
2018-09-17T00:04:34.119Z,64
2018-09-17T00:05:36.212Z,63
2018-09-17T00:06:38.310Z,64
2018-09-17T00:07:40.417Z,64
2018-09-17T00:08:43.193Z,64
2018-09-17T00:09:45.280Z,63
2018-09-17T00:10:47.377Z,63
2018-09-17T00:11:49.483Z,63
2018-09-17T00:12:51.571Z,63
2018-09-17T00:13:53.678Z,63
2018-09-17T00:14:56.085Z,64
2018-09-17T00:15:58.200Z,63
2018-09-17T00:17:00.284Z,63
2018-09-17T00:18:02.781Z,63
2018-09-17T00:19:04.874Z,64
2018-09-17T00:20:06.966Z,63
2018-09-17T00:21:09.075Z,63
2018-09-17T00:22:11.166Z,63
2018-09-17T00:23:13.269Z,63
2018-09-17T00:24:15.376Z,63
2018-09-17T00:25:17.476Z,63
2018-09-17T00:26:19.561Z,63
2018-09-17T00:27:22.055Z,63
2018-09-17T00:28:24.145Z,63
2018-09-17T00:29:26.931Z,63
2018-09-17T00:30:29.356Z,63
2018-09-17T00:31:31.450Z,63
2018-09-17T00:32:33.541Z,63
2018-09-17T00:33:35.947Z,63
2018-09-17T00:34:38.032Z,63
2018-09-17T00:35:40.828Z,63
2018-09-17T00:36:43.302Z,63
2018-09-17T00:37:45.420Z,63
2018-09-17T00:38:47.513Z,63
2018-09-17T00:39:49.613Z,64
2018-09-17T00:40:51.703Z,63
2018-09-17T00:41:54.111Z,63
2018-09-17T00:42:56.196Z,63
2018-09-17T00:43:58.303Z,63
2018-09-17T00:45:00.406Z,63
2018-09-17T00:46:02.487Z,64
2018-09-17T00:47:04.599Z,64
2018-09-17T00:48:07.280Z,64
2018-09-17T00:49:09.380Z,63
2018-09-17T00:50:11.462Z,64
2018-09-17T00:51:13.571Z,63
2018-09-17T00:52:15.664Z,65
2018-09-17T00:53:18.339Z,64
2018-09-17T00:54:21.131Z,65
2018-09-17T00:55:23.221Z,64
2018-09-17T00:56:25.323Z,64
2018-09-17T00:57:27.429Z,64
2018-09-17T00:58:29.527Z,64
2018-09-17T00:59:31.617Z,64
2018-09-17T01:00:34.039Z,64
2018-09-17T01:01:36.134Z,64
2018-09-17T01:02:38.234Z,66
2018-09-17T01:03:40.342Z,65
2018-09-17T01:04:42.439Z,66
2018-09-17T01:05:44.526Z,65
2018-09-17T01:06:46.641Z,65
2018-09-17T01:07:48.734Z,66
2018-09-17T01:08:50.827Z,65
2018-09-17T01:09:53.619Z,67
2018-09-17T01:10:55.706Z,67
2018-09-17T01:11:58.099Z,66
2018-09-17T01:13:00.495Z,66
2018-09-17T01:14:02.599Z,66
2018-09-17T01:15:04.699Z,66
2018-09-17T01:16:07.464Z,66
2018-09-17T01:17:09.564Z,66
2018-09-17T01:18:11.954Z,66
2018-09-17T01:19:14.042Z,68
2018-09-17T01:20:16.152Z,68
2018-09-17T01:21:18.531Z,66
2018-09-17T01:22:20.640Z,68
2018-09-17T01:23:22.721Z,66
2018-09-17T01:24:24.828Z,68
2018-09-17T01:25:26.925Z,67
2018-09-17T01:26:29.309Z,67
2018-09-17T01:27:31.420Z,67
2018-09-17T01:28:34.180Z,66
2018-09-17T01:29:36.286Z,68
2018-09-17T01:30:38.912Z,68
2018-09-17T01:31:40.905Z,68
2018-09-17T01:32:43.381Z,67
2018-09-17T01:33:45.479Z,67
2018-09-17T01:34:47.568Z,68
2018-09-17T01:35:49.661Z,67
2018-09-17T01:36:51.771Z,70
2018-09-17T01:37:54.161Z,69
2018-09-17T01:38:56.536Z,68
2018-09-17T01:39:58.935Z,68
2018-09-17T01:41:01.328Z,68
2018-09-17T01:42:03.424Z,67
2018-09-17T01:43:05.546Z,68
2018-09-17T01:44:07.627Z,68
2018-09-17T01:45:09.727Z,68
2018-09-17T01:46:11.928Z,68
2018-09-17T01:47:14.344Z,68
2018-09-17T01:48:16.422Z,68
2018-09-17T01:49:18.535Z,68
2018-09-17T01:50:20.630Z,68
2018-09-17T01:51:23.141Z,68
2018-09-17T01:52:25.547Z,68
2018-09-17T01:53:27.635Z,69
2018-09-17T01:54:29.737Z,68
2018-09-17T01:55:31.829Z,69
2018-09-17T01:56:33.939Z,68
2018-09-17T01:57:36.318Z,69
2018-09-17T01:58:38.711Z,69
2018-09-17T01:59:41.413Z,69
2018-09-17T02:00:43.499Z,68
2018-09-17T02:01:45.608Z,69
2018-09-17T02:02:47.707Z,68
2018-09-17T02:03:50.084Z,69
2018-09-17T02:04:52.485Z,72
2018-09-17T02:05:54.905Z,70
2018-09-17T02:06:56.996Z,69
2018-09-17T02:07:59.961Z,72
2018-09-17T02:09:02.071Z,69
2018-09-17T02:10:04.619Z,70
2018-09-17T02:11:07.119Z,70
2018-09-17T02:12:09.228Z,71
2018-09-17T02:13:11.316Z,70
2018-09-17T02:14:13.430Z,72
2018-09-17T02:15:15.532Z,70
2018-09-17T02:16:17.621Z,70
2018-09-17T02:17:20.021Z,70
2018-09-17T02:18:22.115Z,72
2018-09-17T02:19:24.510Z,70
2018-09-17T02:20:26.596Z,71
2018-09-17T02:21:28.707Z,70
2018-09-17T02:22:30.798Z,70
2018-09-17T02:23:33.190Z,71
2018-09-17T02:24:35.288Z,72
2018-09-17T02:25:37.376Z,72
2018-09-17T02:26:39.483Z,71
2018-09-17T02:27:41.576Z,72
2018-09-17T02:28:43.690Z,71
2018-09-17T02:29:46.065Z,73
2018-09-17T02:30:48.451Z,72
2018-09-17T02:31:50.944Z,73
2018-09-17T02:32:53.337Z,72
2018-09-17T02:33:55.424Z,73
2018-09-17T02:34:57.530Z,72
2018-09-17T02:35:59.628Z,75
2018-09-17T02:37:01.721Z,73
2018-09-17T02:38:04.395Z,75
2018-09-17T02:39:06.815Z,76
2018-09-17T02:40:08.913Z,74
2018-09-17T02:41:11.301Z,75
2018-09-17T02:42:13.406Z,74
2018-09-17T02:43:16.389Z,75
2018-09-17T02:44:18.490Z,76
2018-09-17T02:45:20.596Z,75
2018-09-17T02:46:23.081Z,76
2018-09-17T02:47:25.183Z,75
2018-09-17T02:48:27.292Z,75
2018-09-17T02:49:30.090Z,75
2018-09-17T02:50:32.889Z,75
2018-09-17T02:51:35.291Z,74
2018-09-17T02:52:37.782Z,75
2018-09-17T02:53:40.317Z,77
2018-09-17T02:54:42.380Z,75
2018-09-17T02:55:44.472Z,74
2018-09-17T02:56:47.357Z,76
2018-09-17T02:57:50.452Z,75
2018-09-17T02:58:52.546Z,74
2018-09-17T02:59:54.940Z,74
2018-09-17T03:00:57.039Z,75
2018-09-17T03:01:59.141Z,74
2018-09-17T03:03:01.517Z,74
2018-09-17T03:04:04.013Z,75
2018-09-17T03:05:06.426Z,74
2018-09-17T03:06:08.804Z,75
2018-09-17T03:07:11.877Z,74
2018-09-17T03:08:13.977Z,75
2018-09-17T03:09:16.458Z,75
2018-09-17T03:10:18.540Z,74
2018-09-17T03:11:20.935Z,75
2018-09-17T03:12:23.042Z,76
2018-09-17T03:13:25.138Z,74
2018-09-17T03:14:27.530Z,75
2018-09-17T03:15:29.629Z,74
2018-09-17T03:16:31.712Z,73
2018-09-17T03:17:33.808Z,74
2018-09-17T03:18:36.206Z,74
2018-09-17T03:19:38.294Z,74
2018-09-17T03:20:40.790Z,75
2018-09-17T03:21:42.896Z,74
2018-09-17T03:22:44.988Z,74
2018-09-17T03:23:47.388Z,75
2018-09-17T03:24:49.491Z,75
2018-09-17T03:25:51.577Z,74
2018-09-17T03:26:54.053Z,75
2018-09-17T03:27:56.555Z,75
2018-09-17T03:28:58.639Z,74
2018-09-17T03:30:00.738Z,75
2018-09-17T03:31:03.836Z,75
2018-09-17T03:32:06.529Z,75
2018-09-17T03:33:08.646Z,76
2018-09-17T03:34:11.028Z,75
2018-09-17T03:35:13.125Z,74
2018-09-17T03:36:15.203Z,74
2018-09-17T03:37:17.307Z,76
2018-09-17T03:38:19.401Z,74
2018-09-17T03:39:21.780Z,74
2018-09-17T03:40:24.470Z,74
2018-09-17T03:41:26.552Z,76
2018-09-17T03:42:29.046Z,74
2018-09-17T03:43:31.159Z,74
2018-09-17T03:44:33.567Z,75
2018-09-17T03:45:36.043Z,75
2018-09-17T03:46:38.150Z,74
2018-09-17T03:47:40.256Z,74
2018-09-17T03:48:42.776Z,74
2018-09-17T03:49:44.859Z,73
2018-09-17T03:50:47.248Z,73
2018-09-17T03:51:49.645Z,74
2018-09-17T03:52:51.728Z,73
2018-09-17T03:53:54.129Z,74
2018-09-17T03:54:56.236Z,74
2018-09-17T03:55:58.320Z,76
2018-09-17T03:57:00.439Z,75
2018-09-17T03:58:02.529Z,77
2018-09-17T03:59:04.623Z,75
2018-09-17T04:00:06.707Z,77
2018-09-17T04:01:08.815Z,76
2018-09-17T04:02:10.900Z,77
2018-09-17T04:03:13.006Z,76
2018-09-17T04:04:15.112Z,77
2018-09-17T04:05:17.192Z,77
2018-09-17T04:06:19.303Z,76
2018-09-17T04:07:21.806Z,78
2018-09-17T04:08:23.908Z,77
2018-09-17T04:09:26.276Z,78
2018-09-17T04:10:28.391Z,78
2018-09-17T04:11:31.068Z,79
2018-09-17T04:12:33.158Z,79
2018-09-17T04:13:35.664Z,80
2018-09-17T04:14:37.751Z,80
2018-09-17T04:15:39.846Z,81
2018-09-17T04:16:41.949Z,81
2018-09-17T04:17:44.045Z,82
2018-09-17T04:18:46.126Z,83
2018-09-17T04:19:48.227Z,84
2018-09-17T04:20:50.320Z,84
2018-09-17T04:21:52.802Z,84
2018-09-17T04:22:55.199Z,85
2018-09-17T04:23:57.296Z,85
2018-09-17T04:24:59.384Z,86
2018-09-17T04:26:02.102Z,85
2018-09-17T04:27:04.488Z,86
2018-09-17T04:28:06.576Z,85
2018-09-17T04:29:08.730Z,85
2018-09-17T04:30:10.819Z,86
2018-09-17T04:31:13.199Z,86
2018-09-17T04:32:15.300Z,87
2018-09-17T04:33:17.401Z,87
2018-09-17T04:34:19.483Z,87
2018-09-17T04:35:21.874Z,88
2018-09-17T04:36:23.966Z,88
2018-09-17T04:37:26.459Z,87
2018-09-17T04:38:28.569Z,87
2018-09-17T04:39:30.653Z,87
2018-09-17T04:40:32.749Z,88
2018-09-17T04:41:34.838Z,88
2018-09-17T04:42:36.946Z,89
2018-09-17T04:43:39.031Z,89
2018-09-17T04:44:41.137Z,88
2018-09-17T04:45:43.237Z,89
2018-09-17T04:46:45.619Z,89
2018-09-17T04:47:47.722Z,89
2018-09-17T04:48:49.809Z,89
2018-09-17T04:49:52.203Z,90
2018-09-17T04:50:54.296Z,90
2018-09-17T04:51:56.400Z,90
2018-09-17T04:52:58.489Z,90
2018-09-17T04:54:00.977Z,89
2018-09-17T04:55:03.369Z,90
2018-09-17T04:56:05.759Z,90
2018-09-17T04:57:08.138Z,88
2018-09-17T04:58:10.245Z,89
2018-09-17T04:59:12.324Z,89
2018-09-17T05:00:14.820Z,88
2018-09-17T05:01:16.920Z,89
2018-09-17T05:02:19.018Z,89
2018-09-17T05:03:21.095Z,89
2018-09-17T05:04:23.195Z,89
2018-09-17T05:05:25.290Z,88
2018-09-17T05:06:27.682Z,89
2018-09-17T05:07:29.765Z,88
2018-09-17T05:08:31.867Z,88
2018-09-17T05:09:34.350Z,87
2018-09-17T05:10:36.434Z,88
2018-09-17T05:11:38.845Z,90
2018-09-17T05:12:40.930Z,89
2018-09-17T05:13:43.027Z,87
2018-09-17T05:14:45.115Z,87
2018-09-17T05:15:47.225Z,88
2018-09-17T05:16:49.304Z,88
2018-09-17T05:17:51.399Z,87
2018-09-17T05:18:53.498Z,85
2018-09-17T05:19:55.581Z,86
2018-09-17T05:20:57.683Z,87
2018-09-17T05:21:59.777Z,86
2018-09-17T05:23:02.149Z,84
2018-09-17T05:24:04.538Z,83
2018-09-17T05:25:07.312Z,84
2018-09-17T05:26:09.401Z,85
2018-09-17T05:27:11.499Z,85
2018-09-17T05:28:13.592Z,84
2018-09-17T05:29:15.672Z,83
2018-09-17T05:30:18.177Z,83
2018-09-17T05:31:20.278Z,84
2018-09-17T05:32:22.362Z,84
2018-09-17T05:33:25.042Z,83
2018-09-17T05:34:27.147Z,83
2018-09-17T05:35:29.234Z,83
2018-09-17T05:36:31.341Z,82
2018-09-17T05:37:33.435Z,83
2018-09-17T05:38:35.818Z,82
2018-09-17T05:39:37.901Z,82
2018-09-17T05:40:39.996Z,84
2018-09-17T05:41:42.416Z,82
2018-09-17T05:42:44.508Z,80
2018-09-17T05:43:46.598Z,82
2018-09-17T05:44:48.708Z,82
2018-09-17T05:45:50.793Z,82
2018-09-17T05:46:52.894Z,81
2018-09-17T05:47:54.979Z,81
2018-09-17T05:48:57.083Z,80
2018-09-17T05:49:59.168Z,81
2018-09-17T05:51:01.555Z,79
2018-09-17T05:52:03.969Z,79
2018-09-17T05:53:06.366Z,79
2018-09-17T05:54:08.761Z,80
2018-09-17T05:55:10.861Z,79
2018-09-17T05:56:13.252Z,78
2018-09-17T05:57:15.345Z,77
2018-09-17T05:58:17.456Z,79
2018-09-17T05:59:19.546Z,77
2018-09-17T06:00:21.643Z,79
2018-09-17T06:01:23.742Z,78
2018-09-17T06:02:25.834Z,76
2018-09-17T06:03:28.217Z,76
2018-09-17T06:04:31.019Z,79
2018-09-17T06:05:33.129Z,77
2018-09-17T06:06:35.209Z,77
2018-09-17T06:07:37.321Z,77
2018-09-17T06:08:39.412Z,76
2018-09-17T06:09:41.595Z,79
2018-09-17T06:10:43.620Z,77
2018-09-17T06:11:45.773Z,75
2018-09-17T06:12:47.810Z,78
2018-09-17T06:13:50.314Z,75
2018-09-17T06:14:52.393Z,74
2018-09-17T06:15:54.489Z,78
2018-09-17T06:16:56.666Z,77
2018-09-17T06:17:58.763Z,77
2018-09-17T06:19:00.850Z,78
2018-09-17T06:20:02.950Z,75
2018-09-17T06:21:05.041Z,74
2018-09-17T06:22:07.158Z,74
2018-09-17T06:23:09.597Z,74
2018-09-17T06:24:12.340Z,75
2018-09-17T06:25:14.443Z,75
2018-09-17T06:26:16.523Z,77
2018-09-17T06:27:18.917Z,75
2018-09-17T06:28:21.013Z,78
2018-09-17T06:29:23.704Z,75
2018-09-17T06:30:25.797Z,77
2018-09-17T06:31:28.313Z,76
2018-09-17T06:32:30.403Z,75
2018-09-17T06:33:32.506Z,76
2018-09-17T06:34:34.605Z,76
2018-09-17T06:35:36.980Z,76
2018-09-17T06:36:39.082Z,77
2018-09-17T06:37:41.252Z,73
2018-09-17T06:38:43.269Z,74
2018-09-17T06:39:45.371Z,73
2018-09-17T06:40:47.867Z,72
2018-09-17T06:41:49.957Z,74
2018-09-17T06:42:52.075Z,73
2018-09-17T06:43:54.168Z,74
2018-09-17T06:44:56.587Z,74
2018-09-17T06:45:58.660Z,74
2018-09-17T06:47:00.782Z,73
2018-09-17T06:48:03.160Z,73
2018-09-17T06:49:05.570Z,73
2018-09-17T06:50:07.679Z,72
2018-09-17T06:51:09.764Z,74
2018-09-17T06:52:11.876Z,74
2018-09-17T06:53:13.968Z,76
2018-09-17T06:54:16.361Z,75
2018-09-17T06:55:18.730Z,73
2018-09-17T06:56:21.226Z,76
2018-09-17T06:57:23.322Z,72
2018-09-17T06:58:25.411Z,72
2018-09-17T06:59:27.521Z,71
2018-09-17T07:00:29.614Z,72
2018-09-17T07:01:32.029Z,72
2018-09-17T07:02:34.145Z,70
2018-09-17T07:03:36.252Z,73
2018-09-17T07:04:38.340Z,70
2018-09-17T07:05:40.739Z,72
2018-09-17T07:06:42.835Z,71
2018-09-17T07:07:44.936Z,72
2018-09-17T07:08:47.043Z,73
2018-09-17T07:09:49.434Z,71
2018-09-17T07:10:51.811Z,70
2018-09-17T07:11:53.925Z,69
2018-09-17T07:12:56.022Z,70
2018-09-17T07:13:58.137Z,69
2018-09-17T07:15:00.291Z,68
2018-09-17T07:16:02.797Z,69
2018-09-17T07:17:05.275Z,71
2018-09-17T07:18:07.399Z,70
2018-09-17T07:19:09.919Z,69
2018-09-17T07:20:12.002Z,69
2018-09-17T07:21:14.116Z,68
2018-09-17T07:22:16.507Z,72
2018-09-17T07:23:18.605Z,68
2018-09-17T07:24:20.714Z,66
2018-09-17T07:25:23.243Z,69
2018-09-17T07:26:25.312Z,67
2018-09-17T07:27:27.410Z,68
2018-09-17T07:28:29.813Z,66
2018-09-17T07:29:32.297Z,66
2018-09-17T07:30:34.723Z,65
2018-09-17T07:31:36.836Z,66
2018-09-17T07:32:38.946Z,66
2018-09-17T07:33:41.367Z,65
2018-09-17T07:34:43.469Z,65
2018-09-17T07:35:45.903Z,64
2018-09-17T07:36:48.011Z,65
2018-09-17T07:37:50.104Z,66
2018-09-17T07:38:52.230Z,65
2018-09-17T07:39:54.323Z,65
2018-09-17T07:40:56.840Z,65
2018-09-17T07:41:59.670Z,66
2018-09-17T07:43:01.748Z,64
2018-09-17T07:44:04.145Z,64
2018-09-17T07:45:06.257Z,64
2018-09-17T07:46:08.359Z,68
2018-09-17T07:47:10.453Z,67
2018-09-17T07:48:12.576Z,68
2018-09-17T07:49:14.956Z,65
2018-09-17T07:50:17.068Z,66
2018-09-17T07:51:19.174Z,65
2018-09-17T07:52:21.288Z,66
2018-09-17T07:53:23.384Z,67
2018-09-17T07:54:25.496Z,65
2018-09-17T07:55:27.597Z,65
2018-09-17T07:56:29.693Z,65
2018-09-17T07:57:32.396Z,63
2018-09-17T07:58:34.488Z,62
2018-09-17T07:59:36.886Z,64
2018-09-17T08:00:39.270Z,66
2018-09-17T08:01:41.386Z,66
2018-09-17T08:02:43.482Z,60
2018-09-17T08:03:45.595Z,61
2018-09-17T08:04:47.707Z,62
2018-09-17T08:05:50.191Z,67
2018-09-17T08:06:52.307Z,66
2018-09-17T08:07:54.405Z,67
2018-09-17T08:08:56.791Z,67
2018-09-17T08:09:58.902Z,60
2018-09-17T08:11:01.308Z,59
2018-09-17T08:12:03.413Z,59
2018-09-17T08:13:06.317Z,59
2018-09-17T08:14:08.420Z,61
2018-09-17T08:15:10.517Z,59
2018-09-17T08:16:12.622Z,59
2018-09-17T08:17:15.052Z,61
2018-09-17T08:18:17.533Z,57
2018-09-17T08:19:19.643Z,61
2018-09-17T08:20:22.065Z,56
2018-09-17T08:21:24.172Z,56
2018-09-17T08:22:26.586Z,56
2018-09-17T08:23:28.685Z,59
2018-09-17T08:24:31.600Z,56
2018-09-17T08:25:33.705Z,56
2018-09-17T08:26:35.779Z,55
2018-09-17T08:27:37.874Z,56
2018-09-17T08:28:39.988Z,54
2018-09-17T08:29:42.101Z,54
2018-09-17T08:30:44.194Z,54
2018-09-17T08:31:46.303Z,56
2018-09-17T08:32:48.405Z,55
2018-09-17T08:33:50.518Z,55
2018-09-17T08:34:53.002Z,53
2018-09-17T08:35:55.124Z,53
2018-09-17T08:36:57.230Z,52
2018-09-17T08:37:59.332Z,54
2018-09-17T08:39:01.449Z,53
2018-09-17T08:40:03.935Z,53
2018-09-17T08:41:06.042Z,51
2018-09-17T08:42:08.164Z,51
2018-09-17T08:43:10.277Z,55
2018-09-17T08:44:13.052Z,57
2018-09-17T08:45:15.162Z,51
2018-09-17T08:46:17.664Z,55
2018-09-17T08:47:19.775Z,51
2018-09-17T08:48:21.893Z,54
2018-09-17T08:49:24.392Z,54
2018-09-17T08:50:26.506Z,53
2018-09-17T08:51:28.603Z,48
2018-09-17T08:52:30.720Z,49
2018-09-17T08:53:32.832Z,50
2018-09-17T08:54:34.933Z,50
2018-09-17T08:55:37.059Z,52
2018-09-17T08:56:39.171Z,52
2018-09-17T08:57:41.879Z,53
2018-09-17T08:58:43.990Z,50
2018-09-17T08:59:46.401Z,52
2018-09-17T09:00:48.495Z,51
2018-09-17T09:01:50.615Z,49
2018-09-17T09:02:52.734Z,49
2018-09-17T09:03:54.897Z,52
2018-09-17T09:04:56.960Z,47
2018-09-17T09:05:59.076Z,49
2018-09-17T09:07:01.190Z,47
2018-09-17T09:08:03.296Z,47
2018-09-17T09:09:05.408Z,45
2018-09-17T09:10:07.510Z,45
2018-09-17T09:11:09.927Z,43
2018-09-17T09:12:12.053Z,44
2018-09-17T09:13:14.162Z,46
2018-09-17T09:14:16.281Z,46
2018-09-17T09:15:18.797Z,48
2018-09-17T09:16:21.198Z,45
2018-09-17T09:17:23.591Z,47
2018-09-17T09:18:25.702Z,44
2018-09-17T09:19:28.234Z,44
2018-09-17T09:20:30.640Z,47
2018-09-17T09:21:33.160Z,44
2018-09-17T09:22:35.271Z,47
2018-09-17T09:23:37.376Z,43
2018-09-17T09:24:39.503Z,43
2018-09-17T09:25:41.607Z,48
2018-09-17T09:26:43.717Z,43
2018-09-17T09:27:45.838Z,44
2018-09-17T09:28:48.239Z,44
2018-09-17T09:29:50.648Z,45
2018-09-17T09:30:52.825Z,43
2018-09-17T09:31:55.289Z,43
2018-09-17T09:32:58.171Z,41
2018-09-17T09:34:00.296Z,44
2018-09-17T09:35:02.417Z,45
2018-09-17T09:36:04.518Z,43
2018-09-17T09:37:06.649Z,44
2018-09-17T09:38:09.223Z,44
2018-09-17T09:39:11.281Z,44
2018-09-17T09:40:13.393Z,40
2018-09-17T09:41:15.522Z,41
2018-09-17T09:42:17.914Z,42
2018-09-17T09:43:20.035Z,41
2018-09-17T09:44:22.543Z,42
2018-09-17T09:45:24.648Z,42
2018-09-17T09:46:26.840Z,40
2018-09-17T09:47:29.305Z,40
2018-09-17T09:48:31.420Z,44
2018-09-17T09:49:33.845Z,40
2018-09-17T09:50:35.975Z,42
2018-09-17T09:51:38.377Z,41
2018-09-17T09:52:40.843Z,43
2018-09-17T09:53:43.322Z,43
2018-09-17T09:54:45.425Z,41
2018-09-17T09:55:47.544Z,40
2018-09-17T09:56:49.962Z,39
2018-09-17T09:57:52.069Z,39
2018-09-17T09:58:54.478Z,40
2018-09-17T09:59:56.606Z,40
2018-09-17T10:00:58.715Z,40
2018-09-17T10:02:00.836Z,42
2018-09-17T10:03:02.943Z,40
2018-09-17T10:04:05.058Z,40
2018-09-17T10:05:07.164Z,39
2018-09-17T10:06:09.570Z,39
2018-09-17T10:07:11.697Z,39
2018-09-17T10:08:13.807Z,38
2018-09-17T10:09:15.913Z,38
2018-09-17T10:10:18.039Z,38
2018-09-17T10:11:20.143Z,37
2018-09-17T10:12:22.650Z,38
2018-09-17T10:13:24.763Z,38
2018-09-17T10:14:26.893Z,39
2018-09-17T10:15:28.992Z,38
2018-09-17T10:16:31.116Z,39
2018-09-17T10:17:33.240Z,39
2018-09-17T10:18:35.341Z,39
2018-09-17T10:19:37.467Z,39
2018-09-17T10:20:39.578Z,39
2018-09-17T10:21:41.685Z,37
2018-09-17T10:22:43.795Z,37
2018-09-17T10:23:45.919Z,38
2018-09-17T10:24:48.024Z,39
2018-09-17T10:25:50.153Z,38
2018-09-17T10:26:52.274Z,37
2018-09-17T10:27:54.757Z,39
2018-09-17T10:28:56.875Z,37
2018-09-17T10:29:59.042Z,39
2018-09-17T10:31:01.493Z,38
2018-09-17T10:32:03.614Z,37
2018-09-17T10:33:05.733Z,37
2018-09-17T10:34:07.845Z,36
2018-09-17T10:35:09.975Z,36
2018-09-17T10:36:12.093Z,35
2018-09-17T10:37:14.212Z,36
2018-09-17T10:38:16.328Z,37
2018-09-17T10:39:18.455Z,36
2018-09-17T10:40:20.563Z,37
2018-09-17T10:41:22.692Z,35
2018-09-17T10:42:25.197Z,35
2018-09-17T10:43:27.320Z,35
2018-09-17T10:44:29.425Z,35
2018-09-17T10:45:31.542Z,36
2018-09-17T10:46:33.656Z,36
2018-09-17T10:47:35.788Z,35
2018-09-17T10:48:37.895Z,36
2018-09-17T10:49:40.015Z,36
2018-09-17T10:50:42.142Z,36
2018-09-17T10:51:44.558Z,37
2018-09-17T10:52:46.685Z,36
2018-09-17T10:53:48.795Z,37
2018-09-17T10:54:51.199Z,37
2018-09-17T10:55:53.314Z,36
2018-09-17T10:56:55.439Z,40
2018-09-17T10:57:57.553Z,38
2018-09-17T10:58:59.680Z,37
2018-09-17T11:00:01.811Z,36
2018-09-17T11:01:03.917Z,37
2018-09-17T11:02:06.420Z,36
2018-09-17T11:03:08.545Z,38
2018-09-17T11:04:10.647Z,36
2018-09-17T11:05:13.168Z,37
2018-09-17T11:06:15.291Z,36
2018-09-17T11:07:17.683Z,37
2018-09-17T11:08:19.903Z,38
2018-09-17T11:09:21.929Z,35
2018-09-17T11:10:24.048Z,38
2018-09-17T11:11:26.448Z,38
2018-09-17T11:12:28.578Z,38
2018-09-17T11:13:30.682Z,38
2018-09-17T11:14:32.802Z,38
2018-09-17T11:15:34.925Z,37
2018-09-17T11:16:37.035Z,37
2018-09-17T11:17:39.674Z,36
2018-09-17T11:18:41.735Z,38
2018-09-17T11:19:44.168Z,35
2018-09-17T11:20:46.270Z,35
2018-09-17T11:21:48.392Z,36
2018-09-17T11:22:50.510Z,36
2018-09-17T11:23:52.629Z,36
2018-09-17T11:24:55.026Z,36
2018-09-17T11:25:57.445Z,36
2018-09-17T11:26:59.846Z,39
2018-09-17T11:28:01.959Z,36
2018-09-17T11:29:04.080Z,36
2018-09-17T11:30:06.205Z,36
2018-09-17T11:31:08.620Z,37
2018-09-17T11:32:11.035Z,39
2018-09-17T11:33:13.155Z,38
2018-09-17T11:34:15.572Z,36
2018-09-17T11:35:17.695Z,37
2018-09-17T11:36:19.817Z,36
2018-09-17T11:37:21.919Z,37
2018-09-17T11:38:24.039Z,37
2018-09-17T11:39:26.155Z,37
2018-09-17T11:40:28.261Z,38
2018-09-17T11:41:31.068Z,39
2018-09-17T11:42:33.182Z,36
2018-09-17T11:43:35.296Z,39
2018-09-17T11:44:38.101Z,38
2018-09-17T11:45:40.230Z,36
2018-09-17T11:46:42.335Z,37
2018-09-17T11:47:44.455Z,36
2018-09-17T11:48:46.578Z,35
2018-09-17T11:49:48.679Z,35
2018-09-17T11:50:50.809Z,35
2018-09-17T11:51:52.925Z,36
2018-09-17T11:52:55.054Z,35
2018-09-17T11:53:57.239Z,36
2018-09-17T11:54:59.279Z,36
2018-09-17T11:56:01.395Z,35
2018-09-17T11:57:03.516Z,37
2018-09-17T11:58:05.644Z,38
2018-09-17T11:59:07.750Z,38
2018-09-17T12:00:09.863Z,36
2018-09-17T12:01:11.984Z,37
2018-09-17T12:02:14.157Z,40
2018-09-17T12:03:16.207Z,38
2018-09-17T12:04:18.333Z,40
2018-09-17T12:05:20.443Z,37
2018-09-17T12:06:22.559Z,35
2018-09-17T12:07:24.697Z,35
2018-09-17T12:08:26.804Z,35
2018-09-17T12:09:28.925Z,34
2018-09-17T12:10:31.056Z,35
2018-09-17T12:11:33.167Z,36
2018-09-17T12:12:35.280Z,36
2018-09-17T12:13:37.402Z,36
2018-09-17T12:14:39.518Z,38
2018-09-17T12:15:41.639Z,35
2018-09-17T12:16:43.755Z,35
2018-09-17T12:17:45.884Z,35
2018-09-17T12:18:47.983Z,36
2018-09-17T12:19:50.112Z,34
2018-09-17T12:20:52.930Z,35
2018-09-17T12:21:55.066Z,35
2018-09-17T12:22:57.196Z,34
2018-09-17T12:23:59.347Z,34
2018-09-17T12:25:01.856Z,36
2018-09-17T12:26:03.971Z,35
2018-09-17T12:27:06.116Z,34
2018-09-17T12:28:08.222Z,35
2018-09-17T12:29:10.348Z,35
2018-09-17T12:30:12.468Z,35
2018-09-17T12:31:14.577Z,35
2018-09-17T12:32:16.710Z,36
2018-09-17T12:33:18.828Z,36
2018-09-17T12:34:20.936Z,34
2018-09-17T12:35:23.338Z,34
2018-09-17T12:36:25.468Z,34
2018-09-17T12:37:27.875Z,34
2018-09-17T12:38:29.993Z,34
2018-09-17T12:39:32.107Z,34
2018-09-17T12:40:34.537Z,34
2018-09-17T12:41:36.658Z,34
2018-09-17T12:42:38.764Z,34
2018-09-17T12:43:40.892Z,34
2018-09-17T12:44:43.003Z,35
2018-09-17T12:45:45.471Z,35
2018-09-17T12:46:47.920Z,36
2018-09-17T12:47:50.028Z,34
2018-09-17T12:48:52.157Z,34
2018-09-17T12:49:54.291Z,34
2018-09-17T12:50:56.450Z,36
2018-09-17T12:51:58.531Z,34
2018-09-17T12:53:01.049Z,35
2018-09-17T12:54:03.165Z,34
2018-09-17T12:55:05.268Z,34
2018-09-17T12:56:07.393Z,34
2018-09-17T12:57:09.510Z,35
2018-09-17T12:58:12.058Z,34
2018-09-17T12:59:14.155Z,34
2018-09-17T13:00:16.289Z,35
2018-09-17T13:01:18.399Z,36
2018-09-17T13:02:20.528Z,35
2018-09-17T13:03:23.101Z,36
2018-09-17T13:04:25.173Z,34
2018-09-17T13:05:27.591Z,35
2018-09-17T13:06:29.707Z,34
2018-09-17T13:07:32.207Z,34
2018-09-17T13:08:34.323Z,34
2018-09-17T13:09:36.449Z,34
2018-09-17T13:10:38.563Z,33
2018-09-17T13:11:40.696Z,33
2018-09-17T13:12:43.208Z,33
2018-09-17T13:13:45.605Z,33
2018-09-17T13:14:48.855Z,34
2018-09-17T13:15:50.933Z,34
2018-09-17T13:16:53.062Z,34
2018-09-17T13:17:55.176Z,33
2018-09-17T13:18:57.577Z,33
2018-09-17T13:20:00.004Z,33
2018-09-17T13:21:02.132Z,33
2018-09-17T13:22:04.545Z,33
2018-09-17T13:23:06.662Z,33
2018-09-17T13:24:09.181Z,33
2018-09-17T13:25:11.288Z,33
2018-09-17T13:26:13.411Z,33
2018-09-17T13:27:15.527Z,33
2018-09-17T13:28:17.632Z,34
2018-09-17T13:29:20.055Z,33
2018-09-17T13:30:22.550Z,33
2018-09-17T13:31:24.668Z,33
2018-09-17T13:32:27.189Z,34
2018-09-17T13:33:29.635Z,33
2018-09-17T13:34:31.743Z,34
2018-09-17T13:35:33.865Z,35
2018-09-17T13:36:35.987Z,34
2018-09-17T13:37:38.093Z,35
2018-09-17T13:38:40.614Z,34
2018-09-17T13:39:43.019Z,36
2018-09-17T13:40:45.126Z,37
2018-09-17T13:41:47.242Z,34
2018-09-17T13:42:49.691Z,35
2018-09-17T13:43:51.788Z,35
2018-09-17T13:44:54.277Z,34
2018-09-17T13:45:56.404Z,34
2018-09-17T13:46:58.653Z,35
2018-09-17T13:48:00.710Z,34
2018-09-17T13:49:02.833Z,34
2018-09-17T13:50:04.972Z,36
2018-09-17T13:51:07.092Z,38
2018-09-17T13:52:09.501Z,34
2018-09-17T13:53:11.687Z,33
2018-09-17T13:54:13.756Z,34
2018-09-17T13:55:16.331Z,34
2018-09-17T13:56:18.907Z,33
2018-09-17T13:57:21.038Z,34
2018-09-17T13:58:23.159Z,34
2018-09-17T13:59:25.263Z,33
2018-09-17T14:00:27.739Z,35
2018-09-17T14:01:30.134Z,35
2018-09-17T14:02:32.555Z,35
2018-09-17T14:03:35.006Z,36
2018-09-17T14:04:37.102Z,36
2018-09-17T14:05:39.214Z,34
2018-09-17T14:06:41.680Z,34
2018-09-17T14:07:43.790Z,34
2018-09-17T14:08:45.913Z,36
2018-09-17T14:09:48.035Z,34
2018-09-17T14:10:50.158Z,36
2018-09-17T14:11:52.264Z,35
2018-09-17T14:12:54.387Z,34
2018-09-17T14:13:56.493Z,35
2018-09-17T14:14:58.604Z,33
2018-09-17T14:16:00.748Z,34
2018-09-17T14:17:02.843Z,34
2018-09-17T14:18:04.982Z,35
2018-09-17T14:19:07.097Z,34
2018-09-17T14:20:09.920Z,34
2018-09-17T14:21:12.038Z,34
2018-09-17T14:22:14.158Z,36
2018-09-17T14:23:16.649Z,34
2018-09-17T14:24:18.793Z,34
2018-09-17T14:25:20.906Z,34
2018-09-17T14:26:23.136Z,33
2018-09-17T14:27:25.135Z,35
2018-09-17T14:28:27.247Z,36
2018-09-17T14:29:29.410Z,34
2018-09-17T14:30:31.787Z,33
2018-09-17T14:31:34.650Z,34
2018-09-17T14:32:36.805Z,34
2018-09-17T14:33:39.187Z,36
2018-09-17T14:34:41.707Z,35
2018-09-17T14:35:43.798Z,33
2018-09-17T14:36:45.926Z,33
2018-09-17T14:37:48.458Z,33
2018-09-17T14:38:50.580Z,34
2018-09-17T14:39:52.689Z,34
2018-09-17T14:40:54.855Z,33
2018-09-17T14:41:56.951Z,34
2018-09-17T14:42:59.058Z,34
2018-09-17T14:44:01.199Z,34
2018-09-17T14:45:03.284Z,35
2018-09-17T14:46:05.484Z,33
2018-09-17T14:47:07.930Z,34